Time;durP1;ratioP1;P1;durP2;ratioP2;P2;SDS_P1;SDS_P2;PMS_P1;PMS_P2;Temp;Humidity;BMP_temperature;BMP_pressure;BME280_temperature;BME280_humidity;BME280_pressure;Samples;Min_cycle;Max_cycle;Signal;HPM_P1;HPM_P2
2023/08/14 00:02:12;;;;;;;6.10;4.20;;;;;;;18.48;67.07;99751.56;6256713;22;19999;-86
2023/08/14 00:04:38;;;;;;;7.93;4.18;;;;;;;18.46;66.95;99747.56;6257182;22;20524;-86
2023/08/14 00:07:03;;;;;;;6.57;3.90;;;;;;;18.43;67.12;99746.25;6257275;22;20013;-86
2023/08/14 00:09:29;;;;;;;7.35;4.15;;;;;;;18.38;67.43;99741.72;6256556;22;20353;-86
2023/08/14 00:11:54;;;;;;;4.88;4.10;;;;;;;18.31;67.49;99740.56;6257292;22;20061;-86
2023/08/14 00:14:20;;;;;;;7.13;4.50;;;;;;;18.26;67.72;99737.97;6255360;22;19995;-86
2023/08/14 00:16:45;;;;;;;5.07;4.15;;;;;;;18.25;68.00;99745.34;6255890;22;20000;-86
2023/08/14 00:19:11;;;;;;;11.40;4.72;;;;;;;18.22;67.87;99743.25;6256884;22;20060;-86
2023/08/14 00:21:36;;;;;;;8.38;4.45;;;;;;;18.11;68.39;99734.50;6256643;22;20337;-86
2023/08/14 00:24:02;;;;;;;6.35;4.82;;;;;;;18.08;68.55;99750.69;6258163;22;20330;-86
2023/08/14 00:26:27;;;;;;;10.82;5.18;;;;;;;18.05;68.91;99745.81;6257124;22;20019;-86
2023/08/14 00:28:53;;;;;;;10.35;5.28;;;;;;;17.97;68.76;99740.03;6282675;22;20476;-86
2023/08/14 00:31:18;;;;;;;6.05;4.72;;;;;;;17.98;68.96;99744.34;6257297;22;20024;-86
2023/08/14 00:33:44;;;;;;;8.07;4.93;;;;;;;17.93;68.92;99746.41;6256050;22;20426;-86
2023/08/14 00:36:09;;;;;;;7.63;4.72;;;;;;;17.95;68.76;99742.25;6256946;22;19999;-86
2023/08/14 00:38:35;;;;;;;7.50;5.05;;;;;;;17.86;68.73;99733.19;6283209;22;20414;-86
2023/08/14 00:41:01;;;;;;;7.18;5.25;;;;;;;17.80;69.39;99733.59;6256246;22;20007;-86
2023/08/14 00:43:27;;;;;;;7.15;4.68;;;;;;;17.74;68.90;99720.09;6257241;22;20007;-86
2023/08/14 00:45:54;;;;;;;8.38;5.45;;;;;;;17.84;69.23;99740.84;6256082;22;19999;-86
2023/08/14 00:48:20;;;;;;;7.60;4.93;;;;;;;17.75;68.85;99739.97;6257996;22;20341;-86
2023/08/14 00:50:45;;;;;;;7.15;5.05;;;;;;;17.60;69.56;99737.56;6256774;22;19996;-86
2023/08/14 00:53:11;;;;;;;7.40;4.72;;;;;;;17.64;69.77;99730.38;6256358;22;19998;-86
2023/08/14 00:55:45;;;;;;;8.63;5.53;;;;;;;17.65;69.81;99740.19;6256821;22;20010;-86
2023/08/14 00:58:11;;;;;;;8.32;5.38;;;;;;;17.54;70.12;99742.34;6257296;22;20025;-86
2023/08/14 01:00:36;;;;;;;12.48;5.57;;;;;;;17.46;70.47;99730.25;6255976;22;20011;-85
2023/08/14 01:03:02;;;;;;;8.75;5.03;;;;;;;17.51;70.36;99741.00;6256414;22;20007;-86
2023/08/14 01:05:35;;;;;;;7.93;5.57;;;;;;;17.48;70.32;99743.56;6255890;22;20022;-86
2023/08/14 01:08:01;;;;;;;7.20;5.10;;;;;;;17.50;70.43;99741.34;6282475;22;20347;-87
2023/08/14 01:10:30;;;;;;;7.43;5.05;;;;;;;17.50;70.06;99738.59;6256790;22;20003;-85
2023/08/14 01:13:01;;;;;;;7.45;5.28;;;;;;;17.40;70.24;99731.47;6282896;22;20067;-85
2023/08/14 01:15:30;;;;;;;7.85;5.28;;;;;;;17.29;70.83;99719.19;6307071;22;20003;-85
2023/08/14 01:18:01;;;;;;;8.55;5.18;;;;;;;17.33;70.53;99728.34;6257173;22;20013;-86
2023/08/14 01:20:37;;;;;;;;;;;;;;;;;;;;;
2023/08/14 01:23:20;;;;;;;11.32;5.72;;;;;;;17.23;71.06;99721.22;6286447;22;20079;-86
2023/08/14 01:25:46;;;;;;;9.30;5.60;;;;;;;17.30;71.58;99739.84;6260283;22;20027;-86
2023/08/14 01:28:11;;;;;;;9.65;5.28;;;;;;;17.27;71.08;99738.53;6284881;22;19996;-83
2023/08/14 01:30:37;;;;;;;11.23;5.38;;;;;;;17.25;71.16;99739.97;6257990;22;20396;-85
2023/08/14 01:33:06;;;;;;;10.70;6.03;;;;;;;17.29;70.86;99746.41;6258392;22;19996;-87
2023/08/14 01:38:53;;;;;;;13.93;5.68;;;;;;;17.15;71.49;99739.03;6283103;22;20010;-87
2023/08/14 01:41:25;;;;;;;7.35;5.60;;;;;;;17.13;71.74;99752.16;6261340;22;20006;-87
2023/08/14 01:43:52;;;;;;;9.10;5.57;;;;;;;17.06;71.42;99737.34;6284390;22;20007;-85
2023/08/14 01:46:18;;;;;;;10.00;5.20;;;;;;;17.15;71.74;99762.72;6257975;22;20006;-86
2023/08/14 01:48:43;;;;;;;7.63;5.35;;;;;;;17.07;71.60;99756.06;6284751;22;20410;-86
2023/08/14 01:51:09;;;;;;;11.23;5.65;;;;;;;17.02;71.50;99749.94;6258225;22;20003;-86
2023/08/14 01:53:35;;;;;;;7.70;5.35;;;;;;;17.00;71.96;99757.59;6283659;22;19999;-84
2023/08/14 01:56:01;;;;;;;10.60;5.60;;;;;;;16.97;71.61;99750.81;6256855;22;20327;-86
2023/08/14 01:58:30;;;;;;;7.20;5.38;;;;;;;16.91;71.61;99746.59;6283537;22;20052;-87
2023/08/14 02:00:55;;;;;;;7.13;5.53;;;;;;;16.90;71.61;99745.78;6258272;22;20031;-86
2023/08/14 02:03:25;;;;;;;8.07;5.65;;;;;;;16.92;71.93;99748.22;6256537;22;20014;-85
2023/08/14 02:05:50;;;;;;;6.68;5.25;;;;;;;16.93;71.72;99747.09;6258339;22;20003;-86
2023/08/14 02:08:22;;;;;;;8.60;5.50;;;;;;;17.01;72.15;99761.91;6257987;22;20003;-85
2023/08/14 02:10:48;;;;;;;6.85;5.43;;;;;;;16.95;71.69;99753.88;6259327;22;19995;-86
2023/08/14 02:13:13;;;;;;;7.38;4.90;;;;;;;16.91;71.65;99741.16;6283446;22;20457;-85
2023/08/14 02:15:44;;;;;;;7.82;5.70;;;;;;;16.94;71.89;99757.69;6283542;22;20406;-86
2023/08/14 02:18:09;;;;;;;7.87;6.27;;;;;;;16.92;72.49;99751.75;6311039;22;20010;-86
2023/08/14 02:20:35;;;;;;;7.45;5.50;;;;;;;16.84;72.48;99752.44;6258088;22;19999;-86
2023/08/14 02:23:00;;;;;;;7.53;5.45;;;;;;;16.83;72.68;99756.28;6257702;22;20064;-87
2023/08/14 02:25:26;;;;;;;10.98;6.15;;;;;;;16.84;72.66;99754.34;6287714;22;19999;-85
2023/08/14 02:27:51;;;;;;;7.82;5.53;;;;;;;16.86;72.53;99768.47;6262767;22;20014;-85
2023/08/14 02:30:17;;;;;;;9.57;5.93;;;;;;;16.80;72.88;99765.00;6263358;22;20006;-87
2023/08/14 02:32:43;;;;;;;7.85;5.97;;;;;;;16.68;72.73;99748.34;6261658;22;19994;-85
2023/08/14 02:35:13;;;;;;;11.02;5.60;;;;;;;16.51;73.05;99743.50;6263393;22;20026;-87
2023/08/14 02:37:39;;;;;;;6.57;4.75;;;;;;;16.63;73.18;99781.09;6288725;22;20014;-85
2023/08/14 02:40:05;;;;;;;9.02;5.45;;;;;;;16.46;73.17;99759.91;6263205;22;20310;-85
2023/08/14 02:42:31;;;;;;;8.57;5.50;;;;;;;16.52;73.34;99772.31;6264310;22;19982;-85
2023/08/14 02:45:00;;;;;;;9.40;5.93;;;;;;;16.46;73.66;99778.94;6288740;22;20010;-86
2023/08/14 02:47:25;;;;;;;7.57;5.50;;;;;;;16.24;74.17;99755.91;6263659;22;20033;-86
2023/08/14 02:49:53;;;;;;;7.40;5.47;;;;;;;16.39;73.48;99787.44;6288176;22;20070;-87
2023/08/14 02:52:19;;;;;;;9.43;6.45;;;;;;;16.31;74.48;99772.63;6262185;22;20353;-86
2023/08/14 02:54:45;;;;;;;8.25;6.50;;;;;;;16.18;73.99;99754.34;6262836;22;19995;-87
2023/08/14 02:57:10;;;;;;;7.70;6.18;;;;;;;16.36;73.77;99777.19;6261417;22;20401;-85
2023/08/14 02:59:40;;;;;;;8.93;6.35;;;;;;;16.38;73.59;99772.25;6262607;22;20041;-87
2023/08/14 03:02:05;;;;;;;7.05;5.28;;;;;;;16.57;72.83;99777.63;6288718;22;20002;-85
2023/08/14 03:04:33;;;;;;;5.57;4.75;;;;;;;16.66;72.58;99794.06;6262109;22;20007;-86
2023/08/14 03:06:59;;;;;;;5.15;4.10;;;;;;;16.71;72.51;99794.00;6262968;22;19999;-85
2023/08/14 03:09:29;;;;;;;6.70;4.70;;;;;;;16.71;72.52;99800.22;6262588;22;19999;-88
2023/08/14 03:11:55;;;;;;;6.13;4.70;;;;;;;16.63;72.86;99800.91;6263301;22;20495;-85
2023/08/14 03:14:23;;;;;;;7.13;5.00;;;;;;;16.54;73.02;99780.97;6262591;22;19991;-86
2023/08/14 03:16:51;;;;;;;5.93;4.60;;;;;;;16.60;73.38;99800.69;6262500;22;19998;-87
2023/08/14 03:19:25;;;;;;;8.15;5.05;;;;;;;16.39;73.31;99773.84;6263265;22;19995;-86
2023/08/14 03:21:54;;;;;;;11.20;4.57;;;;;;;16.41;73.46;99781.72;6263861;22;20055;-86
2023/08/14 03:24:21;;;;;;;6.95;4.70;;;;;;;16.42;73.21;99803.16;6262597;22;20003;-87
2023/08/14 03:26:48;;;;;;;7.15;4.50;;;;;;;16.38;73.98;99794.00;6262864;22;20025;-85
2023/08/14 03:29:14;;;;;;;9.02;4.80;;;;;;;16.32;73.48;99790.53;6262933;22;19999;-86
2023/08/14 03:31:39;;;;;;;5.63;4.50;;;;;;;16.34;73.72;99791.06;6313269;22;20041;-86
2023/08/14 03:34:05;;;;;;;7.65;4.38;;;;;;;16.25;73.67;99778.44;6287351;22;20068;-86
2023/08/14 03:36:30;;;;;;;6.05;5.05;;;;;;;16.24;73.99;99787.69;6263098;22;20311;-85
2023/08/14 03:38:56;;;;;;;10.02;4.68;;;;;;;16.25;73.92;99789.28;6262812;22;20327;-85
2023/08/14 03:41:21;;;;;;;12.88;5.15;;;;;;;16.25;73.55;99798.28;6262668;22;19995;-87
2023/08/14 03:43:47;;;;;;;9.57;5.07;;;;;;;16.23;73.97;99808.63;6262878;22;20006;-88
2023/08/14 03:46:12;;;;;;;7.15;4.43;;;;;;;16.07;73.83;99789.03;6262782;22;20055;-86
2023/08/14 03:48:38;;;;;;;12.60;4.95;;;;;;;16.12;73.62;99788.97;6288422;22;19999;-86
2023/08/14 03:51:03;;;;;;;6.93;4.63;;;;;;;16.19;73.32;99799.47;6262299;22;20422;-85
2023/08/14 03:53:30;;;;;;;8.95;4.80;;;;;;;16.14;73.60;99791.38;6263268;22;19995;-86
2023/08/14 03:55:55;;;;;;;6.38;4.82;;;;;;;16.19;73.79;99806.81;6262779;22;19999;-86
2023/08/14 03:58:21;;;;;;;7.55;4.82;;;;;;;16.16;73.65;99810.91;6261847;22;20425;-85
2023/08/14 04:00:51;;;;;;;9.00;5.13;;;;;;;16.17;73.66;99804.38;6262465;22;19998;-85
2023/08/14 04:03:21;;;;;;;7.75;5.32;;;;;;;16.14;73.31;99799.53;6265411;22;20143;-87
2023/08/14 04:05:47;;;;;;;8.90;4.85;;;;;;;16.05;73.51;99780.38;6261866;22;20472;-87
2023/08/14 04:08:14;;;;;;;13.57;5.47;;;;;;;16.12;74.03;99801.72;6287636;22;19995;-87
2023/08/14 04:10:39;;;;;;;12.45;5.40;;;;;;;16.14;73.79;99799.53;6263821;22;20037;-86
2023/08/14 04:13:05;;;;;;;6.38;4.65;;;;;;;16.00;73.67;99788.59;6287309;22;19995;-86
2023/08/14 04:15:32;;;;;;;12.32;5.90;;;;;;;16.19;73.56;99818.47;6313805;22;20433;-86
2023/08/14 04:17:57;;;;;;;10.27;5.13;;;;;;;16.16;74.18;99816.34;6288074;22;20002;-91
2023/08/14 04:20:26;;;;;;;8.85;4.68;;;;;;;16.12;73.92;99812.59;6262712;22;20010;-88
2023/08/14 04:23:00;;;;;;;7.50;4.95;;;;;;;16.04;74.02;99795.06;6263072;22;20003;-87
2023/08/14 04:25:25;;;;;;;12.55;5.25;;;;;;;16.21;73.87;99827.13;6289560;22;20010;-87
2023/08/14 04:27:56;;;;;;;10.77;5.20;;;;;;;16.13;73.87;99809.59;6261309;22;20404;-89
2023/08/14 04:30:21;;;;;;;12.05;5.40;;;;;;;16.34;73.13;99842.69;6262511;22;20052;-88
2023/08/14 04:32:47;;;;;;;12.15;7.07;;;;;;;16.31;73.58;99826.16;6263077;22;19998;-87
2023/08/14 04:35:18;;;;;;;7.22;5.20;;;;;;;16.34;72.86;99810.06;6261126;22;20006;-88
2023/08/14 04:37:43;;;;;;;14.38;6.43;;;;;;;16.66;72.01;99848.44;6262108;22;20009;-86
2023/08/14 04:40:09;;;;;;;10.80;6.35;;;;;;;16.69;72.16;99851.38;6262063;22;19995;-86
2023/08/14 04:42:35;;;;;;;11.40;7.25;;;;;;;16.75;71.35;99852.91;6262587;22;19999;-92
2023/08/14 04:45:06;;;;;;;12.80;6.85;;;;;;;16.83;70.78;99834.31;6291073;22;19995;-96
2023/08/14 04:47:34;;;;;;;17.05;7.95;;;;;;;16.96;70.01;99847.97;6272941;22;20006;-94
2023/08/14 04:52:56;;;;;;;12.85;7.97;;;;;;;16.99;70.14;99846.53;6271865;22;20043;-95
2023/08/14 04:55:25;;;;;;;15.65;8.45;;;;;;;17.08;69.59;99855.66;6267931;22;20085;-95
2023/08/14 04:57:51;;;;;;;11.48;8.05;;;;;;;17.12;69.69;99844.94;6286055;22;20052;-93
2023/08/14 05:00:22;;;;;;;11.52;7.38;;;;;;;17.17;69.28;99853.03;6263770;22;20491;-93
2023/08/14 05:03:26;;;;;;;11.68;6.95;;;;;;;17.38;69.34;99872.50;6265071;22;20006;-92
2023/08/14 05:05:52;;;;;;;9.35;6.63;;;;;;;17.26;69.39;99834.09;6288968;22;20078;-96
2023/08/14 05:08:24;;;;;;;10.48;6.90;;;;;;;17.65;68.91;99877.16;6264394;22;20457;-94
2023/08/14 05:10:58;;;;;;;;;;;;;;;17.78;68.21;99870.91;6269251;22;20063;-93
2023/08/14 05:13:26;;;;;;;11.60;5.60;;;;;;;17.59;68.18;99834.78;6314831;22;19903;-96
2023/08/14 05:15:52;;;;;;;14.43;5.65;;;;;;;17.71;68.15;99850.63;6290492;22;19991;-93
2023/08/14 05:18:20;;;;;;;19.02;7.05;;;;;;;17.84;67.36;99860.72;6262509;22;19999;-94
2023/08/14 05:20:53;;;;;;;17.88;6.50;;;;;;;17.95;67.76;99847.69;6267423;22;19999;-92
2023/08/14 05:23:25;;;;;;;9.45;6.03;;;;;;;18.13;66.57;99879.44;6269203;22;20003;-94
2023/08/14 05:25:50;;;;;;;13.88;6.30;;;;;;;18.06;66.46;99853.72;6267779;22;20005;-90
2023/08/14 05:28:27;;;;;;;10.15;6.22;;;;;;;18.32;65.46;99879.31;6266859;22;19999;-93
2023/08/14 05:30:52;;;;;;;11.63;6.43;;;;;;;18.45;65.41;99880.38;6269099;22;20179;-91
2023/08/14 05:33:55;;;;;;;10.73;6.75;;;;;;;18.44;64.98;99856.94;6295000;22;19998;-95
2023/08/14 05:53:17;;;;;;;;;;;;;;;;;;;;;
2023/08/14 05:55:46;;;;;;;9.27;7.50;;;;;;;19.21;62.81;99854.22;6207983;23;20020;-91
2023/08/14 06:01:05;;;;;;;11.88;8.88;;;;;;;19.43;62.35;99851.44;6345265;22;20051;-95
2023/08/14 06:03:50;;;;;;;18.00;7.47;;;;;;;19.61;61.89;99852.31;6303533;22;20081;-94
2023/08/14 06:06:22;;;;;;;11.90;7.32;;;;;;;19.90;61.05;99862.69;6301664;22;19999;-94
2023/08/14 06:09:01;;;;;;;10.05;7.88;;;;;;;20.13;60.71;99882.50;6276893;22;20002;-95
2023/08/14 06:11:41;;;;;;;9.43;7.45;;;;;;;20.19;60.47;99855.78;6299006;22;20018;-93
2023/08/14 06:18:04;;;;;;;11.82;8.00;;;;;;;20.62;59.04;99854.22;6195879;23;20024;-94
2023/08/14 06:23:46;;;;;;;;;;;;;;;;;;;;;
2023/08/14 06:26:38;;;;;;;;;;;;;;;;;;;;;
2023/08/14 07:10:19;;;;;;;4.70;3.55;;;;;;;23.70;47.03;99870.56;6197318;22;20030;-93
2023/08/14 07:12:46;;;;;;;5.80;2.92;;;;;;;23.77;44.91;99860.63;6334708;22;20003;-95
2023/08/14 07:18:07;;;;;;;3.33;2.38;;;;;;;24.12;43.86;99884.09;6338055;22;20023;-94
2023/08/14 07:20:59;;;;;;;4.25;2.70;;;;;;;24.13;44.02;99866.41;6239001;22;20032;-96
2023/08/14 07:23:29;;;;;;;16.40;10.75;;;;;;;24.36;43.40;99884.03;6210638;23;20015;-96
2023/08/14 07:26:30;;;;;;;11.75;8.05;;;;;;;24.40;43.23;99849.16;6239934;23;20019;-96
2023/08/14 07:29:01;;;;;;;3.95;2.47;;;;;;;24.63;43.24;99876.13;6156592;23;20093;-96
2023/08/14 07:31:36;;;;;;;6.57;3.67;;;;;;;24.65;43.08;99860.06;6250043;23;20000;-96
2023/08/14 07:34:02;;;;;;;5.43;2.55;;;;;;;24.61;42.77;99845.38;6211956;23;19988;-96
2023/08/14 07:37:05;;;;;;;6.47;4.13;;;;;;;24.80;42.76;99853.00;6264799;22;20030;-94
2023/08/14 07:52:55;;;;;;;6.60;3.53;;;;;;;25.13;42.15;99849.94;6227990;22;20088;-96
2023/08/14 07:55:26;;;;;;;6.68;2.90;;;;;;;25.08;41.72;99850.19;6337307;22;20053;-96
2023/08/14 07:57:59;;;;;;;4.07;2.90;;;;;;;25.18;41.73;99859.88;6321571;22;20048;-96
2023/08/14 08:00:29;;;;;;;5.88;2.60;;;;;;;25.15;41.70;99860.59;6300950;22;19999;-96
2023/08/14 08:02:54;;;;;;;4.90;2.50;;;;;;;25.34;41.81;99881.97;6245004;22;20037;-96
2023/08/14 08:05:20;;;;;;;4.70;2.40;;;;;;;25.31;41.15;99863.38;6266779;22;20082;-94
2023/08/14 08:07:46;;;;;;;7.32;2.45;;;;;;;25.47;41.28;99882.69;6274916;22;20407;-94
2023/08/14 08:19:11;;;;;;;5.63;3.40;;;;;;;25.50;40.88;99852.44;6199657;22;20028;-93
2023/08/14 08:21:48;;;;;;;5.13;3.13;;;;;;;25.46;39.54;99856.25;6277503;22;20013;-93
2023/08/14 08:24:19;;;;;;;5.13;3.30;;;;;;;25.64;40.03;99848.41;6278703;22;20092;-96
2023/08/14 08:30:11;;;;;;;5.45;2.70;;;;;;;25.91;39.97;99853.00;6202950;22;20243;-96
2023/08/14 08:49:20;;;;;;;12.10;5.60;;;;;;;26.30;40.17;99833.72;6173480;22;20025;-96
2023/08/14 08:57:25;;;;;;;4.05;2.85;;;;;;;26.61;39.44;99827.25;6235462;22;20019;-95
2023/08/14 08:59:53;;;;;;;5.30;2.70;;;;;;;26.61;39.38;99832.78;6282399;22;20429;-96
2023/08/14 09:02:18;;;;;;;3.10;2.42;;;;;;;26.65;39.34;99843.91;6278613;22;20448;-96
2023/08/14 09:04:44;;;;;;;4.85;2.67;;;;;;;26.64;39.20;99819.41;6302336;22;20006;-95
2023/08/14 09:07:15;;;;;;;3.97;3.08;;;;;;;26.81;39.71;99836.34;6277051;22;20003;-94
2023/08/14 09:09:41;;;;;;;7.30;3.17;;;;;;;26.78;40.17;99817.72;6281929;22;20003;-92
2023/08/14 09:12:10;;;;;;;3.55;2.50;;;;;;;27.00;39.99;99832.72;6281042;22;20003;-94
2023/08/14 09:17:23;;;;;;;5.75;3.65;;;;;;;27.08;39.47;99817.06;6294658;22;20024;-96
2023/08/14 09:19:58;;;;;;;5.95;3.15;;;;;;;27.06;39.22;99794.50;6272933;22;20004;-93
2023/08/14 09:25:44;;;;;;;5.85;3.35;;;;;;;27.45;39.11;99826.75;6258121;22;20007;-96
2023/08/14 09:37:59;;;;;;;5.18;2.72;;;;;;;27.56;38.68;99808.34;6142149;22;20048;-96
2023/08/14 09:40:33;;;;;;;5.35;2.40;;;;;;;27.65;39.05;99817.16;6113739;23;20034;-95
2023/08/14 09:42:59;;;;;;;7.35;4.22;;;;;;;27.36;39.19;99796.59;6117429;23;20020;-94
2023/08/14 09:49:02;;;;;;;5.75;2.70;;;;;;;27.76;39.12;99812.56;6137690;23;20010;-96
2023/08/14 09:51:39;;;;;;;4.63;3.00;;;;;;;27.55;38.98;99782.63;6090918;23;20006;-96
2023/08/14 09:54:09;;;;;;;5.47;2.90;;;;;;;27.49;39.15;99781.38;6272343;22;20015;-95
2023/08/14 09:56:40;;;;;;;4.72;2.45;;;;;;;27.52;39.15;99805.53;6244000;22;20059;-94
2023/08/14 09:59:06;;;;;;;;;;;;;;;27.72;39.22;99808.16;6273193;22;20014;-95
2023/08/14 10:04:02;;;;;;;5.15;2.95;;;;;;;27.68;38.94;99769.38;6388505;22;20025;-96
2023/08/14 10:06:36;;;;;;;6.93;3.55;;;;;;;27.77;38.96;99766.34;6259801;22;20008;-96
2023/08/14 10:09:11;;;;;;;10.82;2.70;;;;;;;27.80;38.34;99762.81;6302050;22;20001;-96
2023/08/14 10:11:37;;;;;;;5.70;2.90;;;;;;;27.83;38.91;99773.16;6279643;22;19985;-95
2023/08/14 10:14:10;;;;;;;8.05;3.08;;;;;;;27.96;38.30;99749.63;6278491;22;19997;-95
2023/08/14 10:16:51;;;;;;;3.70;2.70;;;;;;;28.12;37.97;99756.91;6121978;22;20040;-95
2023/08/14 10:19:22;;;;;;;4.60;3.33;;;;;;;28.18;38.07;99752.63;6139499;23;20007;-95
2023/08/14 10:21:48;;;;;;;6.80;2.70;;;;;;;28.33;37.23;99773.00;6134471;23;20058;-93
2023/08/14 10:24:46;;;;;;;7.13;2.55;;;;;;;28.36;37.20;99775.78;6112173;23;20044;-94
2023/08/14 10:27:32;;;;;;;3.47;2.63;;;;;;;28.24;37.36;99739.25;6141130;23;20001;-94
2023/08/14 10:30:02;;;;;;;4.53;2.85;;;;;;;28.31;37.51;99753.97;6106413;22;20017;-95
2023/08/14 10:32:28;;;;;;;3.10;2.35;;;;;;;28.35;37.50;99756.78;6079969;23;20007;-93
2023/08/14 10:35:08;;;;;;;4.47;2.80;;;;;;;28.32;37.37;99747.25;6080563;23;19998;-95
2023/08/14 10:40:25;;;;;;;3.90;2.63;;;;;;;28.38;37.25;99740.19;6336811;22;20018;-96
2023/08/14 10:43:12;;;;;;;3.47;2.13;;;;;;;28.53;37.16;99756.97;6293987;22;20010;-94
2023/08/14 10:45:50;;;;;;;6.18;2.70;;;;;;;28.65;36.95;99742.06;6328073;22;20002;-96
2023/08/14 10:52:14;;;;;;;6.80;2.60;;;;;;;28.86;36.79;99755.31;6228234;23;20004;-95
2023/08/14 10:54:46;;;;;;;3.75;2.63;;;;;;;28.62;36.22;99724.22;6201429;23;20040;-95
2023/08/14 10:57:17;;;;;;;;;;;;;;;28.70;36.53;99748.06;6300273;22;19987;-95
2023/08/14 10:59:54;;;;;;;3.78;2.40;;;;;;;28.58;36.27;99726.97;6322879;22;19903;-95
2023/08/14 11:02:20;;;;;;;3.58;2.40;;;;;;;28.75;36.34;99717.22;6305724;22;20007;-95
2023/08/14 11:05:12;;;;;;;4.70;2.80;;;;;;;28.88;36.47;99739.88;6274205;22;20007;-95
2023/08/14 11:10:33;;;;;;;18.05;11.25;;;;;;;28.55;36.21;99705.53;5676223;22;15141581;-95
2023/08/14 11:13:03;;;;;;;5.43;3.22;;;;;;;28.53;36.24;99699.59;6206369;22;20022;-96
2023/08/14 11:15:32;;;;;;;3.90;2.67;;;;;;;28.67;36.53;99712.78;6303746;22;20011;-96
2023/08/14 11:18:12;;;;;;;5.95;3.30;;;;;;;28.66;36.79;99705.66;6282493;22;19989;-95
2023/08/14 11:21:16;;;;;;;9.57;3.92;;;;;;;29.05;36.89;99723.78;6337546;22;20006;-94
2023/08/14 11:23:41;;;;;;;50.38;34.95;;;;;;;29.08;36.29;99698.84;6303875;22;20070;-96
2023/08/14 11:28:45;;;;;;;3.50;2.67;;;;;;;29.39;36.32;99703.03;6169583;22;20017;-90
2023/08/14 11:31:35;;;;;;;4.55;3.63;;;;;;;29.66;35.18;99704.75;6244838;22;20017;-96
2023/08/14 11:34:03;;;;;;;2.95;2.05;;;;;;;29.89;34.87;99685.81;6206747;23;19996;-94
2023/08/14 11:36:29;;;;;;;3.90;2.17;;;;;;;29.99;34.20;99673.16;6162738;23;20064;-96
2023/08/14 11:38:57;;;;;;;5.88;2.47;;;;;;;30.24;34.60;99678.75;6182433;23;19985;-96
2023/08/14 11:41:23;;;;;;;4.28;2.50;;;;;;;30.24;33.92;99701.00;6180919;23;20000;-93
2023/08/14 11:43:51;;;;;;;5.88;2.42;;;;;;;29.97;33.11;99673.56;6180943;23;20035;-96
2023/08/14 11:46:17;;;;;;;5.25;1.98;;;;;;;29.98;32.92;99663.22;6180111;23;20043;-92
2023/08/14 11:48:53;;;;;;;5.32;2.30;;;;;;;30.05;34.00;99654.13;6154937;23;20004;-95
2023/08/14 11:54:50;;;;;;;;;;;;;;;;;;;;;
2023/08/14 11:57:38;;;;;;;5.68;2.30;;;;;;;30.43;32.82;99663.72;6306920;22;20018;-93
2023/08/14 12:00:24;;;;;;;3.72;2.30;;;;;;;30.37;33.04;99643.88;6324693;22;19999;-96
2023/08/14 12:06:38;;;;;;;9.02;2.15;;;;;;;30.33;32.98;99631.97;6239540;23;20015;-94
2023/08/14 12:09:30;;;;;;;2.92;1.98;;;;;;;30.22;32.70;99622.81;6185862;23;20011;-95
2023/08/14 12:11:56;;;;;;;3.05;2.08;;;;;;;30.37;33.23;99655.00;6297727;22;19999;-93
2023/08/14 12:14:21;;;;;;;3.90;2.40;;;;;;;30.40;32.82;99642.28;6270361;22;20094;-93
2023/08/14 12:21:37;;;;;;;5.03;2.55;;;;;;;30.33;32.81;99623.63;6162855;23;20009;-92
2023/08/14 12:54:44;;;;;;;4.65;3.35;;;;;;;30.56;33.69;99597.41;5845235;24;20022;-93
2023/08/14 12:57:10;;;;;;;3.75;2.47;;;;;;;30.55;33.81;99581.94;5929669;23;20144;-93
2023/08/14 12:59:41;;;;;;;5.97;2.60;;;;;;;30.66;33.50;99598.59;6022911;23;20426;-91
2023/08/14 13:02:26;;;;;;;3.72;2.25;;;;;;;30.90;33.00;99586.69;6046005;23;20010;-87
2023/08/14 13:04:54;;;;;;;5.15;2.83;;;;;;;31.09;33.55;99587.38;6075394;23;20020;-87
2023/08/14 13:07:23;;;;;;;3.30;2.70;;;;;;;31.21;32.62;99584.97;6159748;22;20327;-86
2023/08/14 13:09:48;;;;;;;4.10;3.00;;;;;;;31.32;32.64;99571.00;6239182;22;19996;-88
2023/08/14 13:12:14;;;;;;;6.03;3.35;;;;;;;31.44;32.54;99566.22;6235442;22;20322;-87
2023/08/14 13:14:39;;;;;;;3.22;2.05;;;;;;;31.54;31.67;99582.84;6234467;22;20109;-88
2023/08/14 13:17:05;;;;;;;8.15;3.63;;;;;;;31.64;32.14;99569.28;6258643;22;20422;-87
2023/08/14 13:19:34;;;;;;;3.20;2.40;;;;;;;31.76;31.79;99564.03;6265942;22;20010;-88
2023/08/14 13:24:55;;;;;;;5.95;2.70;;;;;;;31.96;30.62;99564.31;6177085;23;20005;-88
2023/08/14 13:27:20;;;;;;;4.40;2.85;;;;;;;32.19;30.98;99580.47;6168747;23;20000;-87
2023/08/14 13:30:05;;;;;;;5.13;3.00;;;;;;;31.91;31.16;99547.22;6172791;23;20066;-86
2023/08/14 13:32:31;;;;;;;6.55;3.10;;;;;;;32.03;30.23;99552.34;6196870;23;20000;-88
2023/08/14 13:34:57;;;;;;;5.05;3.70;;;;;;;32.10;30.03;99571.75;6174500;22;20411;-87
2023/08/14 13:37:23;;;;;;;8.10;3.80;;;;;;;32.00;30.27;99567.06;6234861;22;20001;-86
2023/08/14 13:39:48;;;;;;;5.22;3.00;;;;;;;31.81;29.94;99549.69;6231857;22;20049;-86
2023/08/14 13:42:14;;;;;;;4.95;2.10;;;;;;;31.97;29.84;99554.72;6235848;22;20548;-86
2023/08/14 13:44:39;;;;;;;7.05;3.47;;;;;;;32.03;30.46;99551.56;6257304;22;20007;-87
2023/08/14 13:47:05;;;;;;;4.20;2.13;;;;;;;32.07;29.19;99552.31;6233843;22;19995;-87
2023/08/14 13:49:31;;;;;;;4.05;2.80;;;;;;;32.26;29.32;99560.09;6256692;22;20002;-86
2023/08/14 13:51:57;;;;;;;4.00;2.42;;;;;;;32.31;29.29;99565.25;6256731;22;20002;-85
2023/08/14 13:54:22;;;;;;;3.15;2.13;;;;;;;32.34;29.28;99542.09;6251056;22;20011;-88
2023/08/14 13:56:48;;;;;;;5.30;2.70;;;;;;;32.59;29.69;99547.47;6285195;22;20019;-89
2023/08/14 13:59:13;;;;;;;3.45;2.50;;;;;;;32.83;29.22;99547.59;6259284;22;19999;-88
2023/08/14 14:01:41;;;;;;;5.13;2.95;;;;;;;32.80;28.41;99546.44;6283038;22;19999;-86
2023/08/14 14:04:10;;;;;;;4.82;2.90;;;;;;;32.69;28.90;99536.63;6260828;22;20453;-89
2023/08/14 14:06:35;;;;;;;4.97;2.75;;;;;;;33.02;27.73;99543.41;6262451;22;20029;-91
2023/08/14 14:09:01;;;;;;;8.88;3.38;;;;;;;33.11;27.85;99538.13;6259908;22;19999;-90
2023/08/14 14:11:29;;;;;;;5.05;2.22;;;;;;;33.20;26.66;99544.00;6268255;22;20085;-89
2023/08/14 14:13:55;;;;;;;2.90;1.80;;;;;;;33.44;26.88;99541.28;6262357;22;20006;-89
2023/08/14 14:16:21;;;;;;;3.40;2.50;;;;;;;33.48;26.57;99542.03;6260149;22;20142;-93
2023/08/14 14:18:47;;;;;;;3.85;2.03;;;;;;;33.55;26.45;99524.38;6259732;22;20430;-88
2023/08/14 14:21:14;;;;;;;4.00;2.15;;;;;;;33.85;26.28;99517.16;6257219;22;20003;-88
2023/08/14 14:23:40;;;;;;;2.75;1.90;;;;;;;33.94;25.91;99511.84;6258515;22;19995;-88
2023/08/14 14:26:09;;;;;;;3.10;2.28;;;;;;;34.07;26.34;99515.59;6259366;22;19995;-88
2023/08/14 14:28:34;;;;;;;3.35;2.00;;;;;;;34.31;25.40;99508.03;6263077;22;20007;-86
2023/08/14 14:31:16;;;;;;;3.50;1.80;;;;;;;34.79;24.67;99540.28;6263416;22;20013;-86
2023/08/14 14:33:41;;;;;;;3.60;2.38;;;;;;;35.00;24.88;99527.88;6283642;22;20022;-87
2023/08/14 14:36:07;;;;;;;7.13;2.67;;;;;;;34.89;23.26;99516.13;6282696;22;20002;-88
2023/08/14 14:38:32;;;;;;;2.90;1.90;;;;;;;35.38;22.68;99538.72;6258814;22;19999;-88
2023/08/14 14:40:58;;;;;;;3.95;2.15;;;;;;;35.35;23.22;99525.56;6258614;22;20026;-87
2023/08/14 14:43:27;;;;;;;4.45;2.10;;;;;;;34.88;23.24;99503.34;6257616;22;20003;-88
2023/08/14 14:45:52;;;;;;;4.07;2.22;;;;;;;35.33;23.19;99508.41;6257136;22;20014;-87
2023/08/14 14:48:18;;;;;;;5.07;2.50;;;;;;;35.53;22.26;99513.16;6282804;22;20440;-85
2023/08/14 14:50:55;;;;;;;9.05;2.30;;;;;;;35.31;22.71;99501.66;6259144;22;20006;-85
2023/08/14 14:53:21;;;;;;;4.00;2.17;;;;;;;36.06;22.17;99502.69;6260831;22;20015;-87
2023/08/14 14:55:46;;;;;;;3.10;2.03;;;;;;;36.50;21.10;99505.94;6283371;22;19999;-88
2023/08/14 14:58:12;;;;;;;4.03;2.10;;;;;;;36.48;20.96;99508.41;6256883;22;20003;-86
2023/08/14 15:00:40;;;;;;;3.78;2.20;;;;;;;36.43;21.23;99497.75;6256706;22;20006;-87
2023/08/14 15:03:09;;;;;;;3.88;1.75;;;;;;;36.67;20.83;99503.13;6256132;22;20007;-87
2023/08/14 15:05:40;;;;;;;5.32;2.42;;;;;;;36.45;20.62;99495.28;6256988;22;19995;-87
2023/08/14 15:08:06;;;;;;;3.70;2.20;;;;;;;36.45;20.62;99494.50;6258568;22;20002;-87
2023/08/14 15:10:32;;;;;;;4.10;2.40;;;;;;;36.55;21.03;99497.00;6256974;22;20477;-88
2023/08/14 15:12:57;;;;;;;4.85;2.25;;;;;;;36.57;20.93;99507.78;6256487;22;20003;-88
2023/08/14 15:15:25;;;;;;;3.97;2.50;;;;;;;36.20;20.86;99505.16;6256465;22;19999;-88